sensor_id;sensor_type;location;lat;lon;timestamp;P1;durP1;ratioP1;P2;durP2;ratioP2
12848;SDS011;6493;50.928;7.172;2024-03-02T00:03:43;1.50;;;1.40;;
12848;SDS011;6493;50.928;7.172;2024-03-02T00:08:47;1.40;;;1.10;;
12848;SDS011;6493;50.928;7.172;2024-03-02T00:13:52;2.30;;;1.30;;
12848;SDS011;6493;50.928;7.172;2024-03-02T00:18:58;1.20;;;1.10;;
12848;SDS011;6493;50.928;7.172;2024-03-02T00:24:06;1.77;;;1.27;;
12848;SDS011;6493;50.928;7.172;2024-03-02T00:29:21;1.20;;;1.10;;
12848;SDS011;6493;50.928;7.172;2024-03-02T00:34:27;1.40;;;1.20;;
12848;SDS011;6493;50.928;7.172;2024-03-02T00:39:32;1.50;;;1.30;;
12848;SDS011;6493;50.928;7.172;2024-03-02T00:44:36;1.70;;;1.20;;
12848;SDS011;6493;50.928;7.172;2024-03-02T00:49:41;1.20;;;1.00;;
12848;SDS011;6493;50.928;7.172;2024-03-02T00:54:45;2.80;;;1.30;;
12848;SDS011;6493;50.928;7.172;2024-03-02T00:59:51;1.30;;;1.20;;
12848;SDS011;6493;50.928;7.172;2024-03-02T01:04:56;1.77;;;1.20;;
12848;SDS011;6493;50.928;7.172;2024-03-02T01:10:00;1.83;;;1.20;;
12848;SDS011;6493;50.928;7.172;2024-03-02T01:15:05;1.20;;;1.10;;
12848;SDS011;6493;50.928;7.172;2024-03-02T01:20:11;1.23;;;0.97;;
12848;SDS011;6493;50.928;7.172;2024-03-02T01:25:15;1.70;;;0.90;;
12848;SDS011;6493;50.928;7.172;2024-03-02T01:30:19;1.23;;;1.10;;
12848;SDS011;6493;50.928;7.172;2024-03-02T01:35:24;1.37;;;0.90;;
12848;SDS011;6493;50.928;7.172;2024-03-02T01:40:29;1.83;;;1.10;;
12848;SDS011;6493;50.928;7.172;2024-03-02T01:45:33;1.20;;;1.10;;
12848;SDS011;6493;50.928;7.172;2024-03-02T01:50:38;1.53;;;1.17;;
12848;SDS011;6493;50.928;7.172;2024-03-02T01:55:42;1.23;;;0.90;;
12848;SDS011;6493;50.928;7.172;2024-03-02T02:00:46;1.00;;;0.80;;
12848;SDS011;6493;50.928;7.172;2024-03-02T02:05:54;1.00;;;0.90;;
12848;SDS011;6493;50.928;7.172;2024-03-02T02:10:57;1.53;;;1.10;;
12848;SDS011;6493;50.928;7.172;2024-03-02T02:16:05;2.10;;;1.00;;
12848;SDS011;6493;50.928;7.172;2024-03-02T02:21:11;1.73;;;1.13;;
12848;SDS011;6493;50.928;7.172;2024-03-02T02:26:16;3.70;;;1.40;;
12848;SDS011;6493;50.928;7.172;2024-03-02T02:31:20;1.20;;;0.97;;
12848;SDS011;6493;50.928;7.172;2024-03-02T02:36:29;3.20;;;1.40;;
12848;SDS011;6493;50.928;7.172;2024-03-02T02:41:34;1.70;;;1.10;;
12848;SDS011;6493;50.928;7.172;2024-03-02T02:46:37;1.30;;;1.20;;
12848;SDS011;6493;50.928;7.172;2024-03-02T02:51:44;1.60;;;0.90;;
12848;SDS011;6493;50.928;7.172;2024-03-02T02:56:50;1.67;;;1.10;;
12848;SDS011;6493;50.928;7.172;2024-03-02T03:01:53;1.03;;;0.93;;
12848;SDS011;6493;50.928;7.172;2024-03-02T03:06:57;1.13;;;1.00;;
12848;SDS011;6493;50.928;7.172;2024-03-02T03:12:02;1.07;;;0.97;;
12848;SDS011;6493;50.928;7.172;2024-03-02T03:17:06;1.00;;;0.90;;
12848;SDS011;6493;50.928;7.172;2024-03-02T03:22:11;1.50;;;0.80;;
12848;SDS011;6493;50.928;7.172;2024-03-02T03:27:16;0.90;;;0.90;;
12848;SDS011;6493;50.928;7.172;2024-03-02T03:32:23;0.80;;;0.80;;
12848;SDS011;6493;50.928;7.172;2024-03-02T03:37:27;1.10;;;0.97;;
12848;SDS011;6493;50.928;7.172;2024-03-02T03:42:36;1.20;;;0.83;;
12848;SDS011;6493;50.928;7.172;2024-03-02T03:47:40;1.00;;;0.90;;
12848;SDS011;6493;50.928;7.172;2024-03-02T03:52:44;1.27;;;1.17;;
12848;SDS011;6493;50.928;7.172;2024-03-02T03:57:49;1.10;;;1.00;;
12848;SDS011;6493;50.928;7.172;2024-03-02T04:02:53;1.07;;;0.73;;
12848;SDS011;6493;50.928;7.172;2024-03-02T04:07:58;2.10;;;1.10;;
12848;SDS011;6493;50.928;7.172;2024-03-02T04:13:03;1.63;;;1.10;;
12848;SDS011;6493;50.928;7.172;2024-03-02T04:18:07;1.00;;;0.90;;
12848;SDS011;6493;50.928;7.172;2024-03-02T04:23:11;1.90;;;1.10;;
12848;SDS011;6493;50.928;7.172;2024-03-02T04:28:16;1.60;;;1.33;;
12848;SDS011;6493;50.928;7.172;2024-03-02T04:33:20;1.40;;;1.20;;
12848;SDS011;6493;50.928;7.172;2024-03-02T04:38:24;1.80;;;1.47;;
12848;SDS011;6493;50.928;7.172;2024-03-02T04:43:29;1.53;;;1.30;;
12848;SDS011;6493;50.928;7.172;2024-03-02T04:48:33;1.93;;;1.60;;
12848;SDS011;6493;50.928;7.172;2024-03-02T04:53:37;1.37;;;1.10;;
12848;SDS011;6493;50.928;7.172;2024-03-02T04:58:43;1.27;;;1.17;;
12848;SDS011;6493;50.928;7.172;2024-03-02T05:03:46;1.23;;;1.13;;
12848;SDS011;6493;50.928;7.172;2024-03-02T05:08:50;3.63;;;1.50;;
12848;SDS011;6493;50.928;7.172;2024-03-02T05:13:55;3.10;;;1.30;;
12848;SDS011;6493;50.928;7.172;2024-03-02T05:19:00;1.10;;;1.00;;
12848;SDS011;6493;50.928;7.172;2024-03-02T05:24:04;1.47;;;1.20;;
12848;SDS011;6493;50.928;7.172;2024-03-02T05:29:09;2.67;;;1.17;;
12848;SDS011;6493;50.928;7.172;2024-03-02T05:34:13;1.20;;;1.10;;
12848;SDS011;6493;50.928;7.172;2024-03-02T05:39:17;1.40;;;1.30;;
12848;SDS011;6493;50.928;7.172;2024-03-02T05:44:22;2.07;;;1.40;;
12848;SDS011;6493;50.928;7.172;2024-03-02T05:49:25;2.40;;;1.60;;
12848;SDS011;6493;50.928;7.172;2024-03-02T05:54:32;1.70;;;1.60;;
12848;SDS011;6493;50.928;7.172;2024-03-02T05:59:37;2.03;;;1.53;;
12848;SDS011;6493;50.928;7.172;2024-03-02T06:04:41;2.10;;;1.73;;
12848;SDS011;6493;50.928;7.172;2024-03-02T06:09:45;2.63;;;1.73;;
12848;SDS011;6493;50.928;7.172;2024-03-02T06:14:51;2.53;;;1.80;;
12848;SDS011;6493;50.928;7.172;2024-03-02T06:19:55;4.83;;;1.90;;
12848;SDS011;6493;50.928;7.172;2024-03-02T06:24:59;2.30;;;2.10;;
12848;SDS011;6493;50.928;7.172;2024-03-02T06:30:04;2.83;;;2.30;;
12848;SDS011;6493;50.928;7.172;2024-03-02T06:35:09;2.37;;;2.17;;
12848;SDS011;6493;50.928;7.172;2024-03-02T06:40:14;2.83;;;2.10;;
12848;SDS011;6493;50.928;7.172;2024-03-02T06:45:19;4.33;;;2.20;;
12848;SDS011;6493;50.928;7.172;2024-03-02T06:50:23;2.70;;;1.73;;
12848;SDS011;6493;50.928;7.172;2024-03-02T06:55:27;2.37;;;1.70;;
12848;SDS011;6493;50.928;7.172;2024-03-02T07:00:32;2.33;;;1.97;;
12848;SDS011;6493;50.928;7.172;2024-03-02T07:05:36;2.37;;;1.70;;
12848;SDS011;6493;50.928;7.172;2024-03-02T07:10:39;4.13;;;2.03;;
12848;SDS011;6493;50.928;7.172;2024-03-02T07:15:45;2.20;;;1.90;;
12848;SDS011;6493;50.928;7.172;2024-03-02T07:21:22;3.57;;;2.07;;
12848;SDS011;6493;50.928;7.172;2024-03-02T07:26:28;2.10;;;1.70;;
12848;SDS011;6493;50.928;7.172;2024-03-02T07:31:37;1.70;;;1.60;;
12848;SDS011;6493;50.928;7.172;2024-03-02T07:36:41;1.87;;;1.60;;
12848;SDS011;6493;50.928;7.172;2024-03-02T07:41:45;3.10;;;1.93;;
12848;SDS011;6493;50.928;7.172;2024-03-02T07:46:51;2.00;;;1.60;;
12848;SDS011;6493;50.928;7.172;2024-03-02T07:51:54;2.67;;;1.60;;
12848;SDS011;6493;50.928;7.172;2024-03-02T07:56:58;1.90;;;1.50;;
12848;SDS011;6493;50.928;7.172;2024-03-02T08:02:04;1.83;;;1.67;;
12848;SDS011;6493;50.928;7.172;2024-03-02T08:07:08;2.87;;;1.50;;
12848;SDS011;6493;50.928;7.172;2024-03-02T08:12:12;2.63;;;1.90;;
12848;SDS011;6493;50.928;7.172;2024-03-02T08:17:17;1.37;;;1.20;;
12848;SDS011;6493;50.928;7.172;2024-03-02T08:22:21;1.87;;;1.40;;
12848;SDS011;6493;50.928;7.172;2024-03-02T08:27:26;1.33;;;1.00;;
12848;SDS011;6493;50.928;7.172;2024-03-02T08:32:32;1.20;;;1.10;;
12848;SDS011;6493;50.928;7.172;2024-03-02T08:37:36;1.30;;;1.20;;
12848;SDS011;6493;50.928;7.172;2024-03-02T08:42:42;3.17;;;1.30;;
12848;SDS011;6493;50.928;7.172;2024-03-02T08:47:47;1.67;;;1.10;;
12848;SDS011;6493;50.928;7.172;2024-03-02T08:52:52;1.50;;;1.40;;
12848;SDS011;6493;50.928;7.172;2024-03-02T08:57:56;1.30;;;1.07;;
12848;SDS011;6493;50.928;7.172;2024-03-02T09:03:01;1.20;;;1.10;;
12848;SDS011;6493;50.928;7.172;2024-03-02T09:08:05;2.20;;;1.20;;
12848;SDS011;6493;50.928;7.172;2024-03-02T09:13:09;1.10;;;0.90;;
12848;SDS011;6493;50.928;7.172;2024-03-02T09:18:15;2.97;;;1.53;;
12848;SDS011;6493;50.928;7.172;2024-03-02T09:23:18;4.23;;;1.30;;
12848;SDS011;6493;50.928;7.172;2024-03-02T09:28:22;1.50;;;1.10;;
12848;SDS011;6493;50.928;7.172;2024-03-02T09:33:27;2.80;;;1.30;;
12848;SDS011;6493;50.928;7.172;2024-03-02T09:38:31;1.27;;;1.03;;
12848;SDS011;6493;50.928;7.172;2024-03-02T09:43:36;1.97;;;1.00;;
12848;SDS011;6493;50.928;7.172;2024-03-02T09:48:41;1.10;;;0.80;;
12848;SDS011;6493;50.928;7.172;2024-03-02T09:53:44;1.50;;;1.00;;
12848;SDS011;6493;50.928;7.172;2024-03-02T09:58:49;2.73;;;0.87;;
12848;SDS011;6493;50.928;7.172;2024-03-02T10:03:55;1.03;;;0.83;;
12848;SDS011;6493;50.928;7.172;2024-03-02T10:09:02;1.17;;;0.80;;
12848;SDS011;6493;50.928;7.172;2024-03-02T10:14:07;1.50;;;1.10;;
12848;SDS011;6493;50.928;7.172;2024-03-02T10:19:17;1.37;;;1.10;;
12848;SDS011;6493;50.928;7.172;2024-03-02T10:24:22;2.03;;;1.00;;
12848;SDS011;6493;50.928;7.172;2024-03-02T10:29:27;1.87;;;1.00;;
12848;SDS011;6493;50.928;7.172;2024-03-02T10:34:34;2.27;;;1.50;;
12848;SDS011;6493;50.928;7.172;2024-03-02T10:39:39;1.37;;;1.10;;
12848;SDS011;6493;50.928;7.172;2024-03-02T10:44:46;1.33;;;1.00;;
12848;SDS011;6493;50.928;7.172;2024-03-02T10:49:53;2.50;;;1.00;;
12848;SDS011;6493;50.928;7.172;2024-03-02T10:55:02;1.27;;;1.10;;
12848;SDS011;6493;50.928;7.172;2024-03-02T11:00:08;1.47;;;1.10;;
12848;SDS011;6493;50.928;7.172;2024-03-02T11:05:19;1.33;;;0.97;;
12848;SDS011;6493;50.928;7.172;2024-03-02T11:10:33;3.47;;;1.30;;
12848;SDS011;6493;50.928;7.172;2024-03-02T11:15:39;1.07;;;0.80;;
12848;SDS011;6493;50.928;7.172;2024-03-02T11:20:50;0.80;;;0.80;;
12848;SDS011;6493;50.928;7.172;2024-03-02T11:26:02;1.57;;;0.80;;
12848;SDS011;6493;50.928;7.172;2024-03-02T11:31:20;0.70;;;0.70;;
12848;SDS011;6493;50.928;7.172;2024-03-02T11:36:26;1.40;;;1.20;;
12848;SDS011;6493;50.928;7.172;2024-03-02T11:41:30;0.63;;;0.60;;
12848;SDS011;6493;50.928;7.172;2024-03-02T11:46:34;1.17;;;0.80;;
12848;SDS011;6493;50.928;7.172;2024-03-02T11:51:39;1.47;;;0.90;;
12848;SDS011;6493;50.928;7.172;2024-03-02T11:57:04;1.10;;;1.00;;
12848;SDS011;6493;50.928;7.172;2024-03-02T12:02:14;1.23;;;0.80;;
12848;SDS011;6493;50.928;7.172;2024-03-02T12:07:22;1.27;;;0.80;;
12848;SDS011;6493;50.928;7.172;2024-03-02T12:12:26;0.90;;;0.70;;
12848;SDS011;6493;50.928;7.172;2024-03-02T12:17:31;1.23;;;0.67;;
12848;SDS011;6493;50.928;7.172;2024-03-02T12:22:35;2.20;;;0.90;;
12848;SDS011;6493;50.928;7.172;2024-03-02T12:27:39;0.80;;;0.67;;
12848;SDS011;6493;50.928;7.172;2024-03-02T12:32:44;1.67;;;0.87;;
12848;SDS011;6493;50.928;7.172;2024-03-02T12:37:50;1.23;;;0.80;;
12848;SDS011;6493;50.928;7.172;2024-03-02T12:42:55;1.07;;;0.83;;
12848;SDS011;6493;50.928;7.172;2024-03-02T12:47:59;1.20;;;0.90;;
12848;SDS011;6493;50.928;7.172;2024-03-02T12:53:05;0.87;;;0.80;;
12848;SDS011;6493;50.928;7.172;2024-03-02T12:58:16;0.70;;;0.70;;
12848;SDS011;6493;50.928;7.172;2024-03-02T13:03:20;0.97;;;0.80;;
12848;SDS011;6493;50.928;7.172;2024-03-02T13:08:29;0.60;;;0.60;;
12848;SDS011;6493;50.928;7.172;2024-03-02T13:13:34;1.73;;;1.00;;
12848;SDS011;6493;50.928;7.172;2024-03-02T13:18:39;0.90;;;0.70;;
12848;SDS011;6493;50.928;7.172;2024-03-02T13:23:44;0.63;;;0.63;;
12848;SDS011;6493;50.928;7.172;2024-03-02T13:28:48;0.70;;;0.50;;
12848;SDS011;6493;50.928;7.172;2024-03-02T13:33:52;1.00;;;0.80;;
12848;SDS011;6493;50.928;7.172;2024-03-02T13:38:57;0.77;;;0.60;;
12848;SDS011;6493;50.928;7.172;2024-03-02T13:44:01;0.60;;;0.60;;
12848;SDS011;6493;50.928;7.172;2024-03-02T13:49:05;0.80;;;0.80;;
12848;SDS011;6493;50.928;7.172;2024-03-02T13:54:11;0.70;;;0.70;;
12848;SDS011;6493;50.928;7.172;2024-03-02T13:59:15;0.50;;;0.50;;
12848;SDS011;6493;50.928;7.172;2024-03-02T14:04:19;1.03;;;0.70;;
12848;SDS011;6493;50.928;7.172;2024-03-02T14:09:24;0.67;;;0.67;;
12848;SDS011;6493;50.928;7.172;2024-03-02T14:14:29;0.53;;;0.53;;
12848;SDS011;6493;50.928;7.172;2024-03-02T14:19:33;1.03;;;0.67;;
12848;SDS011;6493;50.928;7.172;2024-03-02T14:24:39;0.90;;;0.70;;
12848;SDS011;6493;50.928;7.172;2024-03-02T14:29:45;0.60;;;0.60;;
12848;SDS011;6493;50.928;7.172;2024-03-02T14:34:49;0.80;;;0.80;;
12848;SDS011;6493;50.928;7.172;2024-03-02T14:39:54;0.67;;;0.67;;
12848;SDS011;6493;50.928;7.172;2024-03-02T14:44:58;0.97;;;0.73;;
12848;SDS011;6493;50.928;7.172;2024-03-02T14:50:05;0.67;;;0.60;;
12848;SDS011;6493;50.928;7.172;2024-03-02T14:55:10;1.27;;;0.50;;
12848;SDS011;6493;50.928;7.172;2024-03-02T15:00:14;1.70;;;0.80;;
12848;SDS011;6493;50.928;7.172;2024-03-02T15:05:18;0.70;;;0.70;;
12848;SDS011;6493;50.928;7.172;2024-03-02T15:10:23;0.60;;;0.60;;
12848;SDS011;6493;50.928;7.172;2024-03-02T15:15:27;0.83;;;0.60;;
12848;SDS011;6493;50.928;7.172;2024-03-02T15:20:31;1.00;;;0.60;;
12848;SDS011;6493;50.928;7.172;2024-03-02T15:25:36;1.60;;;0.60;;
12848;SDS011;6493;50.928;7.172;2024-03-02T15:30:40;1.00;;;0.70;;
12848;SDS011;6493;50.928;7.172;2024-03-02T15:35:44;0.60;;;0.60;;
12848;SDS011;6493;50.928;7.172;2024-03-02T15:40:51;0.60;;;0.50;;
12848;SDS011;6493;50.928;7.172;2024-03-02T15:45:56;1.23;;;0.77;;
12848;SDS011;6493;50.928;7.172;2024-03-02T15:51:04;0.40;;;0.40;;
12848;SDS011;6493;50.928;7.172;2024-03-02T15:56:10;1.03;;;0.50;;
12848;SDS011;6493;50.928;7.172;2024-03-02T16:01:16;0.70;;;0.70;;
12848;SDS011;6493;50.928;7.172;2024-03-02T16:06:22;0.70;;;0.57;;
12848;SDS011;6493;50.928;7.172;2024-03-02T16:11:27;0.60;;;0.50;;
12848;SDS011;6493;50.928;7.172;2024-03-02T16:16:36;0.60;;;0.50;;
12848;SDS011;6493;50.928;7.172;2024-03-02T16:21:40;0.90;;;0.60;;
12848;SDS011;6493;50.928;7.172;2024-03-02T16:26:48;0.70;;;0.60;;
12848;SDS011;6493;50.928;7.172;2024-03-02T16:31:52;0.70;;;0.70;;
12848;SDS011;6493;50.928;7.172;2024-03-02T16:37:01;0.50;;;0.50;;
12848;SDS011;6493;50.928;7.172;2024-03-02T16:42:10;0.53;;;0.50;;
12848;SDS011;6493;50.928;7.172;2024-03-02T16:47:19;1.60;;;0.60;;
12848;SDS011;6493;50.928;7.172;2024-03-02T16:52:26;0.53;;;0.50;;
12848;SDS011;6493;50.928;7.172;2024-03-02T16:57:32;0.50;;;0.50;;
12848;SDS011;6493;50.928;7.172;2024-03-02T17:02:36;0.60;;;0.50;;
12848;SDS011;6493;50.928;7.172;2024-03-02T17:07:49;0.63;;;0.60;;
12848;SDS011;6493;50.928;7.172;2024-03-02T17:12:54;0.70;;;0.60;;
12848;SDS011;6493;50.928;7.172;2024-03-02T17:18:01;0.70;;;0.70;;
12848;SDS011;6493;50.928;7.172;2024-03-02T17:23:06;0.70;;;0.70;;
12848;SDS011;6493;50.928;7.172;2024-03-02T17:28:22;0.60;;;0.60;;
12848;SDS011;6493;50.928;7.172;2024-03-02T17:33:28;0.63;;;0.63;;
12848;SDS011;6493;50.928;7.172;2024-03-02T17:38:32;0.97;;;0.77;;
12848;SDS011;6493;50.928;7.172;2024-03-02T17:43:38;0.70;;;0.70;;
12848;SDS011;6493;50.928;7.172;2024-03-02T17:48:42;0.93;;;0.63;;
12848;SDS011;6493;50.928;7.172;2024-03-02T17:53:46;0.63;;;0.53;;
12848;SDS011;6493;50.928;7.172;2024-03-02T17:58:52;1.10;;;0.73;;
12848;SDS011;6493;50.928;7.172;2024-03-02T18:03:56;1.70;;;0.83;;
12848;SDS011;6493;50.928;7.172;2024-03-02T18:08:59;1.20;;;1.10;;
12848;SDS011;6493;50.928;7.172;2024-03-02T18:14:06;1.60;;;1.13;;
12848;SDS011;6493;50.928;7.172;2024-03-02T18:19:10;1.10;;;1.00;;
12848;SDS011;6493;50.928;7.172;2024-03-02T18:24:14;1.50;;;1.10;;
12848;SDS011;6493;50.928;7.172;2024-03-02T18:29:20;2.37;;;1.07;;
12848;SDS011;6493;50.928;7.172;2024-03-02T18:34:24;1.37;;;1.10;;
12848;SDS011;6493;50.928;7.172;2024-03-02T18:39:28;1.20;;;1.10;;
12848;SDS011;6493;50.928;7.172;2024-03-02T18:44:33;1.57;;;1.20;;
12848;SDS011;6493;50.928;7.172;2024-03-02T18:49:41;1.40;;;1.30;;
12848;SDS011;6493;50.928;7.172;2024-03-02T18:54:46;1.27;;;1.10;;
12848;SDS011;6493;50.928;7.172;2024-03-02T18:59:51;1.40;;;1.30;;
12848;SDS011;6493;50.928;7.172;2024-03-02T19:04:55;1.47;;;1.37;;
12848;SDS011;6493;50.928;7.172;2024-03-02T19:09:59;1.43;;;1.13;;
12848;SDS011;6493;50.928;7.172;2024-03-02T19:15:08;1.90;;;1.40;;
12848;SDS011;6493;50.928;7.172;2024-03-02T19:20:13;1.47;;;1.20;;
12848;SDS011;6493;50.928;7.172;2024-03-02T19:25:17;1.40;;;1.20;;
12848;SDS011;6493;50.928;7.172;2024-03-02T19:30:23;1.20;;;1.00;;
12848;SDS011;6493;50.928;7.172;2024-03-02T19:35:30;1.50;;;1.30;;
12848;SDS011;6493;50.928;7.172;2024-03-02T19:40:33;2.20;;;1.67;;
12848;SDS011;6493;50.928;7.172;2024-03-02T19:45:39;1.47;;;1.37;;
12848;SDS011;6493;50.928;7.172;2024-03-02T19:50:42;1.43;;;1.23;;
12848;SDS011;6493;50.928;7.172;2024-03-02T19:55:46;2.47;;;1.60;;
12848;SDS011;6493;50.928;7.172;2024-03-02T20:00:51;1.50;;;1.33;;
12848;SDS011;6493;50.928;7.172;2024-03-02T20:05:56;1.77;;;1.60;;
12848;SDS011;6493;50.928;7.172;2024-03-02T20:11:01;2.03;;;1.67;;
12848;SDS011;6493;50.928;7.172;2024-03-02T20:16:08;2.53;;;1.60;;
12848;SDS011;6493;50.928;7.172;2024-03-02T20:21:12;2.10;;;1.90;;
12848;SDS011;6493;50.928;7.172;2024-03-02T20:26:15;1.77;;;1.67;;
12848;SDS011;6493;50.928;7.172;2024-03-02T20:31:24;2.17;;;1.97;;
12848;SDS011;6493;50.928;7.172;2024-03-02T20:36:28;2.07;;;1.87;;
12848;SDS011;6493;50.928;7.172;2024-03-02T20:41:32;2.13;;;1.93;;
12848;SDS011;6493;50.928;7.172;2024-03-02T20:46:37;2.50;;;2.30;;
12848;SDS011;6493;50.928;7.172;2024-03-02T20:51:40;2.20;;;2.00;;
12848;SDS011;6493;50.928;7.172;2024-03-02T20:56:44;2.73;;;2.47;;
12848;SDS011;6493;50.928;7.172;2024-03-02T21:01:49;2.03;;;1.83;;
12848;SDS011;6493;50.928;7.172;2024-03-02T21:06:53;2.60;;;2.40;;
12848;SDS011;6493;50.928;7.172;2024-03-02T21:11:57;3.20;;;2.60;;
12848;SDS011;6493;50.928;7.172;2024-03-02T21:17:02;3.37;;;2.50;;
12848;SDS011;6493;50.928;7.172;2024-03-02T21:22:06;2.37;;;2.17;;
12848;SDS011;6493;50.928;7.172;2024-03-02T21:27:10;3.57;;;2.70;;
12848;SDS011;6493;50.928;7.172;2024-03-02T21:32:18;3.30;;;3.00;;
12848;SDS011;6493;50.928;7.172;2024-03-02T21:37:22;2.80;;;2.27;;
12848;SDS011;6493;50.928;7.172;2024-03-02T21:42:26;3.10;;;2.47;;
12848;SDS011;6493;50.928;7.172;2024-03-02T21:47:31;4.10;;;3.00;;
12848;SDS011;6493;50.928;7.172;2024-03-02T21:52:35;3.27;;;2.97;;
12848;SDS011;6493;50.928;7.172;2024-03-02T21:57:39;2.50;;;2.30;;
12848;SDS011;6493;50.928;7.172;2024-03-02T22:02:44;3.90;;;2.80;;
12848;SDS011;6493;50.928;7.172;2024-03-02T22:07:48;4.00;;;3.00;;
12848;SDS011;6493;50.928;7.172;2024-03-02T22:12:51;3.33;;;2.97;;
12848;SDS011;6493;50.928;7.172;2024-03-02T22:17:58;3.50;;;3.20;;
12848;SDS011;6493;50.928;7.172;2024-03-02T22:23:05;4.30;;;3.20;;
12848;SDS011;6493;50.928;7.172;2024-03-02T22:28:08;4.07;;;2.90;;
12848;SDS011;6493;50.928;7.172;2024-03-02T22:33:14;4.17;;;3.50;;
12848;SDS011;6493;50.928;7.172;2024-03-02T22:38:19;3.07;;;2.77;;
12848;SDS011;6493;50.928;7.172;2024-03-02T22:43:23;3.03;;;2.53;;
12848;SDS011;6493;50.928;7.172;2024-03-02T22:48:28;3.70;;;2.93;;
12848;SDS011;6493;50.928;7.172;2024-03-02T22:53:33;3.67;;;3.37;;
12848;SDS011;6493;50.928;7.172;2024-03-02T22:58:38;3.50;;;3.20;;
12848;SDS011;6493;50.928;7.172;2024-03-02T23:03:43;3.57;;;3.27;;
12848;SDS011;6493;50.928;7.172;2024-03-02T23:08:47;3.53;;;2.90;;
12848;SDS011;6493;50.928;7.172;2024-03-02T23:13:50;3.60;;;3.30;;
12848;SDS011;6493;50.928;7.172;2024-03-02T23:18:55;3.90;;;3.33;;
12848;SDS011;6493;50.928;7.172;2024-03-02T23:23:59;3.73;;;3.20;;
12848;SDS011;6493;50.928;7.172;2024-03-02T23:29:03;3.53;;;3.23;;
12848;SDS011;6493;50.928;7.172;2024-03-02T23:34:08;3.10;;;2.80;;
12848;SDS011;6493;50.928;7.172;2024-03-02T23:39:14;4.57;;;3.20;;
12848;SDS011;6493;50.928;7.172;2024-03-02T23:44:39;5.30;;;3.73;;
12848;SDS011;6493;50.928;7.172;2024-03-02T23:49:44;3.73;;;3.33;;
12848;SDS011;6493;50.928;7.172;2024-03-02T23:54:48;4.83;;;3.63;;
12848;SDS011;6493;50.928;7.172;2024-03-02T23:59:53;3.53;;;3.23;;
